createdAt,value
2019-03-17T00:00:26.905Z,70.60
2019-03-17T00:02:57.347Z,70.90
2019-03-17T00:05:25.522Z,71.20
2019-03-17T00:07:53.947Z,72.50
2019-03-17T00:10:22.402Z,74.00
2019-03-17T00:12:50.863Z,74.50
2019-03-17T00:15:19.379Z,75.00
2019-03-17T00:17:47.802Z,76.00
2019-03-17T00:20:16.235Z,76.60
2019-03-17T00:22:44.693Z,77.40
2019-03-17T00:25:13.123Z,77.50
2019-03-17T00:27:41.547Z,77.50
2019-03-17T00:30:11.729Z,78.10
2019-03-17T00:32:40.252Z,78.50
2019-03-17T00:35:08.758Z,78.60
2019-03-17T00:37:37.175Z,79.10
2019-03-17T00:40:08.674Z,79.70
2019-03-17T00:42:37.089Z,79.60
2019-03-17T00:45:11.337Z,79.80
2019-03-17T00:47:38.738Z,79.90
2019-03-17T00:50:10.258Z,79.80
2019-03-17T00:52:38.691Z,80.40
2019-03-17T00:55:07.450Z,81.00
2019-03-17T00:57:35.881Z,81.20
2019-03-17T01:00:07.526Z,82.10
2019-03-17T01:02:35.967Z,82.10
2019-03-17T01:05:05.631Z,82.50
2019-03-17T01:07:34.052Z,82.50
2019-03-17T01:10:02.469Z,83.00
2019-03-17T01:12:30.922Z,83.50
2019-03-17T01:14:59.367Z,83.90
2019-03-17T01:17:27.817Z,83.60
2019-03-17T01:19:56.270Z,83.80
2019-03-17T01:22:24.698Z,83.70
2019-03-17T01:24:53.145Z,84.10
2019-03-17T01:27:21.578Z,84.70
2019-03-17T01:29:50.182Z,84.40
2019-03-17T01:32:18.592Z,84.50
2019-03-17T01:34:47.048Z,84.60
2019-03-17T01:37:15.492Z,85.10
2019-03-17T01:39:43.922Z,85.10
2019-03-17T01:42:12.347Z,85.20
2019-03-17T01:44:40.765Z,85.70
2019-03-17T01:47:09.214Z,85.90
2019-03-17T01:49:37.647Z,85.90
2019-03-17T01:52:06.062Z,85.80
2019-03-17T01:54:34.522Z,85.30
2019-03-17T01:57:02.995Z,85.10
2019-03-17T01:59:31.454Z,85.70
2019-03-17T02:01:59.918Z,85.30
2019-03-17T02:04:28.329Z,85.10
2019-03-17T02:06:56.771Z,85.20
2019-03-17T02:09:25.212Z,85.30
2019-03-17T02:11:53.651Z,85.20
2019-03-17T02:14:22.084Z,85.20
2019-03-17T02:16:50.581Z,85.00
2019-03-17T02:19:18.996Z,85.80
2019-03-17T02:21:47.451Z,85.60
2019-03-17T02:24:15.859Z,85.80
2019-03-17T02:26:44.292Z,85.80
2019-03-17T02:29:12.734Z,85.80
2019-03-17T02:31:41.149Z,86.30
2019-03-17T02:34:12.031Z,85.90
2019-03-17T02:36:39.714Z,86.40
2019-03-17T02:39:08.130Z,85.90
2019-03-17T02:41:36.619Z,82.20
2019-03-17T02:44:05.141Z,81.40
2019-03-17T02:46:33.593Z,81.60
2019-03-17T02:49:02.050Z,82.30
2019-03-17T02:51:30.480Z,83.20
2019-03-17T02:53:58.927Z,83.40
2019-03-17T02:56:27.372Z,84.00
2019-03-17T02:58:55.864Z,84.30
2019-03-17T03:01:24.280Z,84.50
2019-03-17T03:03:52.718Z,84.20
2019-03-17T03:06:21.182Z,84.80
2019-03-17T03:08:49.655Z,84.70
2019-03-17T03:11:18.095Z,83.90
2019-03-17T03:13:46.527Z,83.50
2019-03-17T03:16:14.948Z,82.10
2019-03-17T03:18:43.394Z,81.60
2019-03-17T03:21:11.833Z,80.80
2019-03-17T03:23:40.274Z,80.70
2019-03-17T03:26:08.701Z,81.70
2019-03-17T03:28:37.131Z,82.10
2019-03-17T03:31:05.560Z,82.60
2019-03-17T03:33:34.046Z,82.40
2019-03-17T03:36:10.824Z,82.00
2019-03-17T03:38:32.620Z,81.70
2019-03-17T03:41:01.045Z,82.50
2019-03-17T03:43:29.543Z,83.10
2019-03-17T03:45:57.977Z,83.20
2019-03-17T03:48:26.430Z,83.50
2019-03-17T03:50:55.017Z,82.90
2019-03-17T03:53:23.524Z,83.00
2019-03-17T03:55:52.044Z,82.00
2019-03-17T03:58:20.486Z,80.90
2019-03-17T04:00:48.933Z,80.90
2019-03-17T04:03:17.515Z,80.40
2019-03-17T04:05:45.963Z,80.50
2019-03-17T04:08:14.400Z,80.80
2019-03-17T04:10:42.912Z,79.90
2019-03-17T04:13:11.324Z,79.80
2019-03-17T04:15:41.375Z,79.80
2019-03-17T04:18:09.794Z,79.90
2019-03-17T04:20:38.230Z,79.60
2019-03-17T04:23:06.689Z,80.10
2019-03-17T04:25:35.098Z,80.60
2019-03-17T04:28:03.606Z,80.10
2019-03-17T04:30:32.029Z,80.50
2019-03-17T04:33:00.467Z,80.80
2019-03-17T04:35:28.909Z,81.00
2019-03-17T04:37:57.308Z,81.00
2019-03-17T04:40:25.755Z,81.30
2019-03-17T04:42:54.168Z,82.00
2019-03-17T04:45:22.616Z,81.10
2019-03-17T04:47:51.037Z,81.30
2019-03-17T04:50:19.528Z,81.20
2019-03-17T04:52:47.985Z,81.10
2019-03-17T04:55:16.416Z,80.80
2019-03-17T04:57:44.856Z,81.00
2019-03-17T05:00:13.826Z,81.00
2019-03-17T05:02:42.267Z,81.10
2019-03-17T05:05:10.847Z,81.20
2019-03-17T05:07:39.274Z,81.20
2019-03-17T05:10:09.956Z,80.90
2019-03-17T05:12:38.357Z,81.00
2019-03-17T05:15:09.494Z,80.80
2019-03-17T05:17:37.909Z,81.10
2019-03-17T05:20:08.871Z,81.50
2019-03-17T05:22:37.286Z,81.40
2019-03-17T05:25:06.852Z,81.50
2019-03-17T05:27:35.293Z,81.50
2019-03-17T05:30:04.863Z,81.40
2019-03-17T05:32:33.278Z,80.70
2019-03-17T05:35:01.734Z,80.60
2019-03-17T05:37:30.244Z,80.20
2019-03-17T05:39:58.685Z,79.50
2019-03-17T05:42:27.098Z,78.90
2019-03-17T05:44:55.542Z,79.10
2019-03-17T05:47:23.954Z,78.90
2019-03-17T05:49:53.299Z,78.70
2019-03-17T05:52:21.725Z,78.30
2019-03-17T05:54:50.151Z,78.40
2019-03-17T05:57:18.560Z,78.50
2019-03-17T05:59:46.984Z,78.00
2019-03-17T06:02:15.407Z,78.50
2019-03-17T06:04:43.854Z,79.00
2019-03-17T06:07:18.706Z,79.50
2019-03-17T06:09:42.445Z,79.70
2019-03-17T06:12:10.866Z,79.60
2019-03-17T06:14:39.283Z,79.70
2019-03-17T06:17:07.710Z,79.80
2019-03-17T06:19:36.154Z,79.70
2019-03-17T06:22:04.566Z,79.80
2019-03-17T06:24:33.022Z,79.40
2019-03-17T06:27:01.437Z,78.70
2019-03-17T06:29:29.878Z,78.00
2019-03-17T06:31:58.330Z,77.90
2019-03-17T06:34:26.775Z,78.00
2019-03-17T06:36:55.206Z,77.30
2019-03-17T06:39:23.621Z,77.50
2019-03-17T06:41:52.033Z,75.70
2019-03-17T06:44:20.448Z,75.70
2019-03-17T06:46:48.891Z,74.60
2019-03-17T06:49:17.302Z,74.80
2019-03-17T06:51:45.739Z,75.70
2019-03-17T06:54:14.174Z,77.00
2019-03-17T06:56:42.633Z,77.40
2019-03-17T06:59:11.082Z,78.00
2019-03-17T07:01:39.513Z,78.00
2019-03-17T07:07:02.978Z,79.50
2019-03-17T07:09:31.422Z,79.70
2019-03-17T07:11:59.835Z,80.20
2019-03-17T07:14:28.258Z,80.60
2019-03-17T07:16:56.675Z,81.00
2019-03-17T07:19:25.086Z,81.50
2019-03-17T07:21:53.530Z,80.90
2019-03-17T07:24:21.939Z,80.50
2019-03-17T07:26:50.378Z,79.70
2019-03-17T07:29:18.817Z,78.10
2019-03-17T07:31:47.238Z,78.00
2019-03-17T07:34:15.665Z,78.70
2019-03-17T07:36:44.090Z,78.90
2019-03-17T07:39:12.633Z,79.20
2019-03-17T07:41:41.248Z,79.10
2019-03-17T07:44:09.664Z,79.10
2019-03-17T07:46:38.103Z,79.40
2019-03-17T07:49:06.522Z,80.70
2019-03-17T07:51:34.958Z,81.40
2019-03-17T07:54:03.566Z,74.00
2019-03-17T07:56:31.994Z,69.20
2019-03-17T07:59:00.449Z,60.40
2019-03-17T08:01:28.966Z,60.10
2019-03-17T08:03:57.407Z,62.10
2019-03-17T08:06:25.824Z,61.50
2019-03-17T08:08:54.250Z,58.50
2019-03-17T08:11:22.675Z,59.90
2019-03-17T08:13:51.118Z,61.20
2019-03-17T08:16:19.567Z,63.80
2019-03-17T08:18:48.074Z,66.40
2019-03-17T08:21:16.526Z,67.80
2019-03-17T08:23:44.930Z,68.40
2019-03-17T08:26:13.366Z,69.80
2019-03-17T08:28:41.791Z,70.00
2019-03-17T08:31:10.231Z,68.60
2019-03-17T08:33:38.669Z,62.10
2019-03-17T08:36:07.102Z,56.50
2019-03-17T08:38:35.526Z,51.50
2019-03-17T08:41:04.014Z,49.90
2019-03-17T08:43:32.458Z,51.50
2019-03-17T08:46:00.894Z,55.90
2019-03-17T08:48:29.416Z,58.40
2019-03-17T08:50:57.855Z,61.90
2019-03-17T08:53:26.293Z,64.00
2019-03-17T08:55:54.785Z,67.10
2019-03-17T08:58:23.260Z,66.10
2019-03-17T09:00:51.706Z,66.10
2019-03-17T09:03:20.159Z,66.20
2019-03-17T09:05:48.607Z,66.70
2019-03-17T09:08:17.022Z,65.50
2019-03-17T09:10:45.474Z,66.40
2019-03-17T09:13:13.917Z,66.40
2019-03-17T09:15:42.359Z,69.30
2019-03-17T09:18:10.806Z,68.30
2019-03-17T09:20:39.264Z,67.50
2019-03-17T09:23:07.751Z,66.90
2019-03-17T09:25:36.202Z,68.30
2019-03-17T09:28:04.650Z,67.30
2019-03-17T09:30:33.102Z,68.00
2019-03-17T09:33:01.569Z,68.30
2019-03-17T09:35:29.987Z,68.20
2019-03-17T09:37:59.948Z,67.30
2019-03-17T09:40:28.393Z,68.10
2019-03-17T09:42:59.067Z,66.70
2019-03-17T09:45:27.507Z,66.80
2019-03-17T09:47:55.931Z,66.80
2019-03-17T09:50:24.351Z,67.00
2019-03-17T09:52:55.130Z,65.20
2019-03-17T09:55:23.558Z,65.50
2019-03-17T09:57:52.000Z,62.60
2019-03-17T10:00:21.875Z,64.10
2019-03-17T10:05:24.426Z,63.60
2019-03-17T10:07:52.870Z,63.70
2019-03-17T10:10:23.325Z,63.40
2019-03-17T10:12:54.114Z,64.40
2019-03-17T10:15:22.547Z,65.30
2019-03-17T10:17:50.958Z,65.00
2019-03-17T10:20:20.426Z,65.00
2019-03-17T10:22:48.854Z,64.30
2019-03-17T10:25:17.345Z,64.60
2019-03-17T10:27:45.972Z,63.30
2019-03-17T10:30:17.466Z,63.00
2019-03-17T10:32:45.946Z,63.50
2019-03-17T10:35:14.529Z,63.60
2019-03-17T10:37:42.956Z,63.60
2019-03-17T10:40:13.729Z,64.90
2019-03-17T10:42:42.148Z,64.10
2019-03-17T10:45:11.999Z,63.70
2019-03-17T10:47:40.620Z,62.50
2019-03-17T10:50:11.962Z,62.00
2019-03-17T10:52:40.417Z,62.30
2019-03-17T10:55:10.083Z,62.80
2019-03-17T10:57:38.655Z,62.20
2019-03-17T11:00:10.178Z,61.40
2019-03-17T11:02:38.618Z,61.50
2019-03-17T11:05:07.738Z,61.50
2019-03-17T11:07:36.182Z,62.10
2019-03-17T11:10:07.373Z,60.30
2019-03-17T11:12:35.815Z,60.50
2019-03-17T11:15:07.541Z,61.20
2019-03-17T11:17:35.971Z,59.70
2019-03-17T11:20:07.422Z,59.00
2019-03-17T11:22:35.874Z,60.30
2019-03-17T11:25:06.158Z,61.30
2019-03-17T11:27:34.604Z,61.20
2019-03-17T11:30:04.257Z,60.50
2019-03-17T11:32:32.692Z,59.30
2019-03-17T11:35:01.131Z,58.70
2019-03-17T11:37:29.554Z,58.30
2019-03-17T11:39:58.024Z,61.10
2019-03-17T11:42:26.473Z,60.00
2019-03-17T11:44:54.891Z,59.90
2019-03-17T11:47:23.307Z,61.00
2019-03-17T11:49:51.770Z,60.80
2019-03-17T11:52:20.203Z,61.30
2019-03-17T11:54:48.614Z,60.70
2019-03-17T11:57:17.043Z,59.70
2019-03-17T11:59:45.486Z,59.50
2019-03-17T12:02:25.769Z,59.70
2019-03-17T12:04:44.058Z,60.20
2019-03-17T12:07:12.474Z,60.40
2019-03-17T12:09:49.750Z,61.00
2019-03-17T12:12:11.045Z,61.00
2019-03-17T12:14:39.472Z,60.90
2019-03-17T12:17:07.910Z,61.30
2019-03-17T12:19:36.328Z,60.90
2019-03-17T12:22:09.426Z,59.60
2019-03-17T12:24:34.949Z,59.10
2019-03-17T12:27:03.402Z,59.10
2019-03-17T12:29:31.836Z,58.50
2019-03-17T12:32:00.282Z,59.10
2019-03-17T12:34:28.784Z,59.80
2019-03-17T12:36:57.248Z,59.60
2019-03-17T12:39:25.742Z,58.90
2019-03-17T12:41:54.194Z,59.10
2019-03-17T12:44:22.626Z,57.80
2019-03-17T12:46:51.069Z,59.00
2019-03-17T12:49:19.505Z,59.90
2019-03-17T12:51:47.943Z,60.30
2019-03-17T12:54:16.358Z,60.00
2019-03-17T12:56:46.341Z,59.00
2019-03-17T12:59:14.762Z,60.00
2019-03-17T13:01:43.264Z,59.90
2019-03-17T13:04:11.751Z,59.90
2019-03-17T13:06:40.222Z,58.20
2019-03-17T13:09:08.642Z,59.00
2019-03-17T13:11:37.090Z,59.00
2019-03-17T13:14:06.937Z,59.50
2019-03-17T13:16:35.579Z,59.80
2019-03-17T13:19:04.061Z,59.70
2019-03-17T13:21:32.497Z,59.60
2019-03-17T13:24:00.924Z,59.50
2019-03-17T13:26:29.404Z,59.30
2019-03-17T13:28:57.899Z,59.10
2019-03-17T13:31:26.370Z,59.60
2019-03-17T13:33:54.801Z,58.60
2019-03-17T13:36:23.228Z,58.20
2019-03-17T13:38:51.674Z,58.10
2019-03-17T13:41:20.118Z,58.10
2019-03-17T13:43:48.559Z,57.80
2019-03-17T13:46:16.991Z,57.90
2019-03-17T13:48:45.435Z,59.20
2019-03-17T13:51:13.894Z,59.30
2019-03-17T13:53:42.314Z,58.60
2019-03-17T13:56:10.745Z,58.70
2019-03-17T13:58:39.166Z,58.10
2019-03-17T14:01:07.590Z,57.10
2019-03-17T14:03:36.010Z,59.50
2019-03-17T14:06:04.455Z,59.30
2019-03-17T14:08:32.890Z,59.70
2019-03-17T14:11:01.333Z,58.90
2019-03-17T14:13:29.756Z,58.80
2019-03-17T14:15:58.225Z,59.30
2019-03-17T14:18:26.670Z,58.30
2019-03-17T14:20:55.090Z,56.00
2019-03-17T14:23:23.539Z,56.10
2019-03-17T14:25:51.978Z,55.10
2019-03-17T14:28:20.410Z,55.00
2019-03-17T14:30:48.858Z,55.30
2019-03-17T14:33:17.306Z,56.10
2019-03-17T14:35:45.763Z,57.00
2019-03-17T14:38:14.206Z,56.00
2019-03-17T14:40:52.762Z,56.40
2019-03-17T14:43:12.782Z,57.30
2019-03-17T14:45:41.215Z,57.60
2019-03-17T14:48:09.626Z,58.80
2019-03-17T14:50:38.068Z,58.10
2019-03-17T14:53:06.534Z,58.40
2019-03-17T14:55:34.955Z,57.00
2019-03-17T14:58:03.425Z,56.10
2019-03-17T15:00:31.832Z,55.50
2019-03-17T15:03:00.269Z,55.80
2019-03-17T15:05:28.723Z,56.20
2019-03-17T15:07:57.174Z,56.20
2019-03-17T15:10:26.186Z,56.80
2019-03-17T15:12:54.646Z,57.10
2019-03-17T15:15:23.413Z,56.90
2019-03-17T15:17:51.871Z,56.90
2019-03-17T15:20:22.201Z,57.30
2019-03-17T15:22:50.697Z,56.80
2019-03-17T15:25:19.141Z,56.90
2019-03-17T15:27:47.592Z,57.50
2019-03-17T15:30:19.007Z,58.20
2019-03-17T15:35:21.215Z,59.20
2019-03-17T15:37:49.676Z,59.50
2019-03-17T15:40:19.251Z,60.00
2019-03-17T15:42:49.343Z,59.90
2019-03-17T15:45:19.227Z,59.00
2019-03-17T15:47:47.726Z,59.20
2019-03-17T15:50:18.274Z,59.50
2019-03-17T15:52:48.647Z,59.30
2019-03-17T15:55:18.119Z,59.10
2019-03-17T15:57:46.629Z,59.20
2019-03-17T16:00:24.833Z,58.30
2019-03-17T16:02:51.378Z,58.50
2019-03-17T16:05:20.084Z,58.70
2019-03-17T16:07:48.673Z,58.80
2019-03-17T16:10:20.176Z,58.30
2019-03-17T16:12:50.129Z,58.40
2019-03-17T16:15:19.118Z,58.80
2019-03-17T16:17:47.676Z,58.80
2019-03-17T16:20:18.847Z,58.20
2019-03-17T16:22:50.189Z,58.10
2019-03-17T16:25:21.351Z,58.00
2019-03-17T16:27:49.790Z,58.00
2019-03-17T16:30:20.928Z,57.10
2019-03-17T16:32:59.752Z,57.20
2019-03-17T16:35:28.214Z,58.10
2019-03-17T16:37:56.891Z,58.80
2019-03-17T16:40:27.462Z,59.90
2019-03-17T16:42:57.555Z,60.30
2019-03-17T16:45:26.101Z,60.00
2019-03-17T16:47:54.511Z,60.30
2019-03-17T16:50:23.985Z,60.60
2019-03-17T16:52:54.268Z,61.30
2019-03-17T16:55:22.709Z,61.50
2019-03-17T16:57:51.122Z,59.40
2019-03-17T17:00:21.102Z,59.10
2019-03-17T17:02:50.090Z,58.70
2019-03-17T17:05:19.559Z,59.50
2019-03-17T17:07:48.021Z,59.70
2019-03-17T17:10:19.547Z,60.00
2019-03-17T17:13:01.154Z,60.50
2019-03-17T17:15:31.012Z,61.00
2019-03-17T17:17:59.836Z,61.40
2019-03-17T17:20:30.536Z,62.30
2019-03-17T17:22:59.767Z,62.90
2019-03-17T17:25:28.208Z,62.40
2019-03-17T17:27:57.122Z,62.20
2019-03-17T17:30:25.576Z,62.20
2019-03-17T17:33:13.344Z,62.60
2019-03-17T17:35:41.779Z,63.30
2019-03-17T17:38:10.215Z,63.00
2019-03-17T17:40:38.693Z,63.20
2019-03-17T17:43:07.122Z,63.30
2019-03-17T17:45:35.642Z,63.50
2019-03-17T17:48:04.250Z,64.60
2019-03-17T17:50:33.264Z,64.60
2019-03-17T17:53:01.724Z,64.70
2019-03-17T17:55:30.149Z,65.00
2019-03-17T17:57:58.580Z,65.70
2019-03-17T18:00:28.648Z,65.60
2019-03-17T18:02:58.766Z,66.00
2019-03-17T18:05:27.233Z,66.20
2019-03-17T18:07:55.853Z,65.10
2019-03-17T18:10:24.354Z,64.60
2019-03-17T18:12:52.759Z,64.20
2019-03-17T18:15:24.270Z,63.50
2019-03-17T18:17:52.818Z,64.00
2019-03-17T18:20:21.262Z,64.40
2019-03-17T18:22:49.718Z,65.50
2019-03-17T18:25:19.409Z,65.50
2019-03-17T18:27:48.030Z,66.00
2019-03-17T18:30:17.808Z,66.30
2019-03-17T18:32:46.310Z,66.70
2019-03-17T18:35:14.866Z,67.30
2019-03-17T18:37:43.907Z,67.60
2019-03-17T18:40:14.318Z,67.60
2019-03-17T18:42:42.930Z,67.60
2019-03-17T18:45:14.207Z,67.70
2019-03-17T18:47:42.649Z,67.20
2019-03-17T18:50:20.096Z,67.20
2019-03-17T18:52:43.374Z,66.70
2019-03-17T18:55:13.458Z,67.00
2019-03-17T18:57:41.881Z,66.70
2019-03-17T19:00:13.398Z,66.80
2019-03-17T19:02:41.886Z,66.90
2019-03-17T19:05:12.748Z,67.50
2019-03-17T19:07:41.190Z,68.30
2019-03-17T19:10:12.248Z,68.80
2019-03-17T19:12:45.413Z,68.60
2019-03-17T19:15:13.757Z,68.20
2019-03-17T19:17:42.463Z,68.00
2019-03-17T19:20:14.007Z,68.00
2019-03-17T19:22:42.455Z,67.90
2019-03-17T19:25:13.329Z,68.40
2019-03-17T19:27:41.921Z,68.60
2019-03-17T19:30:13.439Z,68.90
2019-03-17T19:32:41.948Z,68.30
2019-03-17T19:35:11.006Z,67.40
2019-03-17T19:37:39.519Z,67.30
2019-03-17T19:40:11.035Z,67.60
2019-03-17T19:42:39.523Z,68.50
2019-03-17T19:45:08.409Z,69.00
2019-03-17T19:47:36.833Z,69.50
2019-03-17T19:50:08.384Z,69.50
2019-03-17T19:52:36.825Z,69.40
2019-03-17T19:55:07.090Z,69.60
2019-03-17T19:57:35.572Z,69.30
2019-03-17T20:00:08.366Z,69.20
2019-03-17T20:02:57.919Z,69.30
2019-03-17T20:05:26.344Z,69.00
2019-03-17T20:07:54.784Z,68.80
2019-03-17T20:10:25.626Z,69.00
2019-03-17T20:13:10.809Z,68.80
2019-03-17T20:15:28.459Z,68.70
2019-03-17T20:17:57.122Z,69.10
2019-03-17T20:20:25.633Z,69.30
2019-03-17T20:22:54.320Z,69.70
2019-03-17T20:25:22.817Z,70.20
2019-03-17T20:27:51.238Z,70.60
2019-03-17T20:30:20.098Z,70.60
2019-03-17T20:32:51.426Z,70.90
2019-03-17T20:35:19.861Z,71.20
2019-03-17T20:37:48.309Z,71.00
2019-03-17T20:40:17.780Z,70.80
2019-03-17T20:42:46.466Z,70.60
2019-03-17T20:45:15.948Z,70.10
2019-03-17T20:47:44.806Z,69.50
2019-03-17T20:50:14.588Z,69.10
2019-03-17T20:52:43.018Z,69.00
2019-03-17T20:55:12.310Z,69.30
2019-03-17T20:57:40.915Z,69.40
2019-03-17T21:00:12.434Z,69.50
2019-03-17T21:02:40.870Z,70.00
2019-03-17T21:05:10.918Z,70.70
2019-03-17T21:07:44.926Z,70.90
2019-03-17T21:10:17.166Z,71.30
2019-03-17T21:12:45.686Z,71.60
2019-03-17T21:15:15.465Z,72.20
2019-03-17T21:17:43.986Z,72.30
2019-03-17T21:20:15.326Z,72.80
2019-03-17T21:22:43.781Z,72.80
2019-03-17T21:25:12.335Z,72.90
2019-03-17T21:27:40.830Z,73.10
2019-03-17T21:30:12.251Z,73.40
2019-03-17T21:32:40.665Z,73.60
2019-03-17T21:35:09.098Z,73.30
2019-03-17T21:37:37.535Z,73.50
2019-03-17T21:40:09.118Z,73.60
2019-03-17T21:42:37.537Z,74.10
2019-03-17T21:45:08.318Z,73.40
2019-03-17T21:47:36.735Z,73.60
2019-03-17T21:50:08.186Z,73.40
2019-03-17T21:52:36.610Z,73.50
2019-03-17T21:55:07.290Z,73.80
2019-03-17T21:57:35.722Z,73.50
2019-03-17T22:00:06.877Z,73.70
2019-03-17T22:02:35.318Z,73.60
2019-03-17T22:05:04.031Z,73.50
2019-03-17T22:07:32.437Z,73.50
2019-03-17T22:10:00.865Z,73.40
2019-03-17T22:12:29.342Z,73.30
2019-03-17T22:14:57.849Z,73.00
2019-03-17T22:17:26.364Z,73.10
2019-03-17T22:19:54.798Z,73.40
2019-03-17T22:22:23.222Z,73.40
2019-03-17T22:24:51.633Z,73.20
2019-03-17T22:27:20.051Z,72.80
2019-03-17T22:29:48.470Z,73.00
2019-03-17T22:32:16.896Z,73.10
2019-03-17T22:34:45.347Z,72.90
2019-03-17T22:37:13.831Z,72.30
2019-03-17T22:39:42.241Z,72.20
2019-03-17T22:42:10.666Z,72.30
2019-03-17T22:44:39.092Z,72.10
2019-03-17T22:47:07.507Z,72.10
2019-03-17T22:49:35.953Z,71.60
2019-03-17T22:52:04.393Z,71.60
2019-03-17T22:54:32.873Z,71.10
2019-03-17T22:57:01.295Z,71.60
2019-03-17T22:59:29.706Z,71.90
2019-03-17T23:01:58.209Z,71.20
2019-03-17T23:04:26.657Z,70.90
2019-03-17T23:06:55.144Z,72.50
2019-03-17T23:09:23.559Z,74.60
2019-03-17T23:11:51.997Z,76.10
2019-03-17T23:14:20.442Z,77.10
2019-03-17T23:16:48.880Z,77.90
2019-03-17T23:19:17.361Z,78.40
2019-03-17T23:21:45.799Z,79.00
2019-03-17T23:24:14.303Z,79.40
2019-03-17T23:26:42.716Z,79.80
2019-03-17T23:29:11.163Z,79.90
2019-03-17T23:31:39.598Z,80.00
2019-03-17T23:34:08.058Z,79.40
2019-03-17T23:36:36.474Z,78.90
2019-03-17T23:39:05.743Z,79.10
2019-03-17T23:41:34.176Z,79.10
2019-03-17T23:44:02.594Z,79.10
2019-03-17T23:46:31.041Z,79.20
2019-03-17T23:48:59.472Z,79.30
2019-03-17T23:51:27.957Z,79.40
2019-03-17T23:53:56.398Z,79.60
2019-03-17T23:56:24.815Z,79.70
2019-03-17T23:58:53.259Z,79.80
